createdAt,value
2022-07-29T00:02:43.403Z,3.40
2022-07-29T00:05:45.074Z,3.50
2022-07-29T00:08:46.686Z,3.20
2022-07-29T00:11:48.714Z,3.97
2022-07-29T00:14:50.388Z,3.67
2022-07-29T00:17:52.102Z,3.77
2022-07-29T00:20:53.760Z,3.43
2022-07-29T00:23:55.417Z,3.47
2022-07-29T00:26:57.051Z,3.17
2022-07-29T00:29:58.685Z,3.40
2022-07-29T00:33:00.309Z,3.27
2022-07-29T00:36:02.063Z,3.60
2022-07-29T00:39:04.035Z,3.83
2022-07-29T00:42:06.237Z,3.50
2022-07-29T00:45:08.106Z,3.60
2022-07-29T00:48:10.244Z,3.00
2022-07-29T00:51:12.705Z,3.60
2022-07-29T00:54:14.686Z,3.67
2022-07-29T00:57:16.514Z,3.10
2022-07-29T01:00:24.232Z,3.67
2022-07-29T01:03:26.043Z,3.53
2022-07-29T01:06:27.990Z,3.37
2022-07-29T01:09:45.247Z,3.20
2022-07-29T01:12:51.228Z,3.70
2022-07-29T01:15:57.794Z,3.50
2022-07-29T01:19:23.938Z,3.40
2022-07-29T01:23:08.657Z,3.70
2022-07-29T01:26:39.370Z,3.30
2022-07-29T01:29:47.892Z,3.67
2022-07-29T01:32:54.341Z,3.60
2022-07-29T01:35:56.076Z,3.20
2022-07-29T01:39:11.031Z,3.60
2022-07-29T01:42:22.079Z,3.90
2022-07-29T01:45:44.094Z,3.50
2022-07-29T01:48:54.525Z,3.60
2022-07-29T01:52:06.723Z,3.13
2022-07-29T01:55:14.454Z,4.10
2022-07-29T01:58:19.987Z,3.60
2022-07-29T02:01:24.727Z,3.60
2022-07-29T02:04:30.026Z,3.63
2022-07-29T02:07:33.833Z,3.37
2022-07-29T02:10:39.046Z,4.20
2022-07-29T02:13:43.171Z,3.20
2022-07-29T02:16:46.242Z,3.60
2022-07-29T02:19:49.238Z,3.53
2022-07-29T02:22:51.850Z,3.50
2022-07-29T02:25:58.109Z,3.50
2022-07-29T02:29:01.026Z,3.83
2022-07-29T02:32:04.400Z,3.63
2022-07-29T02:35:07.664Z,3.73
2022-07-29T02:38:32.021Z,3.93
2022-07-29T02:41:48.855Z,3.27
2022-07-29T02:44:51.138Z,3.63
2022-07-29T02:47:54.630Z,3.70
2022-07-29T02:51:07.349Z,3.87
2022-07-29T02:54:11.297Z,3.83
2022-07-29T02:57:23.436Z,3.30
2022-07-29T03:00:29.295Z,3.83
2022-07-29T03:03:38.267Z,3.63
2022-07-29T03:06:41.422Z,3.50
2022-07-29T03:09:44.749Z,3.83
2022-07-29T03:12:47.455Z,3.90
2022-07-29T03:15:49.611Z,3.73
2022-07-29T03:18:51.874Z,4.27
2022-07-29T03:21:55.987Z,4.53
2022-07-29T03:24:57.566Z,4.10
2022-07-29T03:27:59.792Z,4.03
2022-07-29T03:31:01.474Z,3.73
2022-07-29T03:34:03.370Z,3.93
2022-07-29T03:37:06.974Z,3.83
2022-07-29T03:40:11.104Z,4.40
2022-07-29T03:43:16.223Z,4.10
2022-07-29T03:46:20.894Z,4.50
2022-07-29T03:49:24.584Z,4.00
2022-07-29T03:52:26.530Z,4.60
2022-07-29T03:55:31.671Z,4.20
2022-07-29T03:58:34.204Z,4.27
2022-07-29T04:01:36.195Z,3.80
2022-07-29T04:04:38.362Z,4.20
2022-07-29T04:07:40.559Z,3.60
2022-07-29T04:10:42.141Z,4.40
2022-07-29T04:13:43.773Z,3.87
2022-07-29T04:16:45.386Z,4.20
2022-07-29T04:19:47.012Z,3.77
2022-07-29T04:22:48.634Z,4.07
2022-07-29T04:25:50.263Z,5.10
2022-07-29T04:28:51.866Z,3.80
2022-07-29T04:31:53.544Z,4.30
2022-07-29T04:34:55.159Z,3.83
2022-07-29T04:37:57.129Z,4.23
2022-07-29T04:40:58.783Z,4.93
2022-07-29T04:44:05.826Z,4.60
2022-07-29T04:47:09.161Z,4.83
2022-07-29T04:50:11.196Z,4.20
2022-07-29T04:53:13.126Z,4.50
2022-07-29T04:56:14.848Z,4.20
2022-07-29T04:59:16.515Z,4.30
2022-07-29T05:02:18.227Z,4.57
2022-07-29T05:05:20.021Z,4.47
2022-07-29T05:08:21.649Z,5.10
2022-07-29T05:11:27.244Z,4.60
2022-07-29T05:14:31.649Z,4.90
2022-07-29T05:17:33.255Z,5.00
2022-07-29T05:20:35.551Z,4.37
2022-07-29T05:23:37.226Z,4.67
2022-07-29T05:26:39.584Z,4.23
2022-07-29T05:29:43.707Z,4.50
2022-07-29T05:32:47.087Z,4.40
2022-07-29T05:35:48.679Z,3.90
2022-07-29T05:38:51.922Z,4.40
2022-07-29T05:41:53.517Z,5.00
2022-07-29T05:44:55.110Z,4.87
2022-07-29T05:47:56.705Z,4.47
2022-07-29T05:50:58.310Z,4.03
2022-07-29T05:54:00.040Z,4.50
2022-07-29T05:57:01.867Z,4.50
2022-07-29T06:00:04.365Z,4.43
2022-07-29T06:03:09.167Z,5.27
2022-07-29T06:06:10.950Z,4.83
2022-07-29T06:09:13.798Z,4.77
2022-07-29T06:12:15.932Z,4.70
2022-07-29T06:15:17.767Z,5.27
2022-07-29T06:18:19.425Z,4.73
2022-07-29T06:21:21.060Z,5.00
2022-07-29T06:24:22.688Z,4.93
2022-07-29T06:27:24.329Z,5.07
2022-07-29T06:30:26.179Z,4.50
2022-07-29T06:33:27.892Z,4.73
2022-07-29T06:36:29.627Z,5.00
2022-07-29T06:39:31.661Z,5.60
2022-07-29T06:42:33.244Z,5.67
2022-07-29T06:45:44.601Z,5.10
2022-07-29T06:48:48.606Z,5.70
2022-07-29T06:51:50.426Z,5.93
2022-07-29T06:54:52.140Z,5.23
2022-07-29T06:57:53.761Z,5.60
2022-07-29T07:00:56.734Z,5.50
2022-07-29T07:03:58.470Z,5.43
2022-07-29T07:07:00.519Z,5.90
2022-07-29T07:10:02.331Z,4.97
2022-07-29T07:13:05.276Z,6.00
2022-07-29T07:16:07.487Z,5.53
2022-07-29T07:19:09.267Z,5.83
2022-07-29T07:22:10.845Z,5.60
2022-07-29T07:25:13.392Z,5.67
2022-07-29T07:28:14.996Z,5.53
2022-07-29T07:31:16.708Z,5.50
2022-07-29T07:34:18.938Z,5.20
2022-07-29T07:37:31.663Z,5.10
2022-07-29T07:40:33.541Z,5.40
2022-07-29T07:43:35.140Z,5.77
2022-07-29T07:46:36.763Z,5.90
2022-07-29T07:49:40.037Z,5.03
2022-07-29T07:52:54.554Z,6.77
2022-07-29T07:56:12.865Z,6.20
2022-07-29T07:59:14.679Z,5.40
2022-07-29T08:02:16.328Z,5.80
2022-07-29T08:05:18.267Z,5.30
2022-07-29T08:08:19.934Z,5.60
2022-07-29T08:11:21.922Z,5.83
2022-07-29T08:14:23.597Z,5.53
2022-07-29T08:17:25.275Z,6.00
2022-07-29T08:20:26.989Z,5.77
2022-07-29T08:23:47.272Z,6.07
2022-07-29T08:26:50.389Z,5.37
2022-07-29T08:29:51.994Z,5.77
2022-07-29T08:32:55.010Z,6.03
2022-07-29T08:35:57.297Z,5.40
2022-07-29T08:38:59.190Z,5.43
2022-07-29T08:42:01.161Z,5.73
2022-07-29T08:45:04.669Z,5.57
2022-07-29T08:48:06.441Z,5.50
2022-07-29T08:51:20.115Z,6.00
2022-07-29T08:54:24.290Z,6.27
2022-07-29T08:57:27.218Z,5.90
2022-07-29T09:00:30.278Z,6.83
2022-07-29T09:03:33.303Z,5.90
2022-07-29T09:06:39.255Z,5.57
2022-07-29T09:09:41.022Z,5.93
2022-07-29T09:12:42.984Z,6.13
2022-07-29T09:15:45.228Z,6.20
2022-07-29T09:18:47.629Z,6.60
2022-07-29T09:22:03.305Z,5.57
2022-07-29T09:25:05.435Z,5.77
2022-07-29T09:28:08.683Z,6.07
2022-07-29T09:31:10.459Z,6.23
2022-07-29T09:34:14.255Z,6.40
2022-07-29T09:37:30.919Z,5.60
2022-07-29T09:40:32.613Z,6.23
2022-07-29T09:43:35.043Z,6.13
2022-07-29T09:46:37.015Z,5.97
2022-07-29T09:50:01.334Z,6.50
2022-07-29T09:53:02.926Z,5.63
2022-07-29T09:56:05.705Z,5.70
2022-07-29T09:59:08.704Z,5.80
2022-07-29T10:02:17.730Z,6.23
2022-07-29T10:05:25.829Z,6.80
2022-07-29T10:08:27.832Z,6.10
2022-07-29T10:11:36.521Z,6.80
2022-07-29T10:14:51.831Z,6.17
2022-07-29T10:17:55.099Z,6.27
2022-07-29T10:20:57.753Z,5.63
2022-07-29T10:24:01.305Z,6.30
2022-07-29T10:27:05.112Z,6.27
2022-07-29T10:30:07.897Z,6.23
2022-07-29T10:33:45.039Z,6.67
2022-07-29T10:37:10.515Z,6.80
2022-07-29T10:40:38.272Z,6.67
2022-07-29T10:43:46.835Z,6.47
2022-07-29T10:46:54.273Z,6.40
2022-07-29T10:50:01.675Z,6.80
2022-07-29T10:53:03.495Z,6.60
2022-07-29T10:56:25.274Z,5.90
2022-07-29T10:59:32.231Z,6.63
2022-07-29T11:02:46.528Z,6.50
2022-07-29T11:05:56.543Z,6.13
2022-07-29T11:09:27.347Z,6.20
2022-07-29T11:12:39.303Z,6.23
2022-07-29T11:15:57.127Z,6.50
2022-07-29T11:19:14.331Z,6.20
2022-07-29T11:22:36.613Z,6.10
2022-07-29T11:25:50.155Z,6.07
2022-07-29T11:28:54.008Z,6.70
2022-07-29T11:32:10.046Z,5.80
2022-07-29T11:35:38.064Z,6.05
2022-07-29T11:38:41.975Z,6.30
2022-07-29T11:41:43.564Z,6.20
2022-07-29T11:45:42.155Z,6.43
2022-07-29T11:48:32.427Z,6.40
2022-07-29T11:51:38.285Z,6.63
2022-07-29T11:54:57.776Z,6.85
2022-07-29T11:58:04.071Z,6.63
2022-07-29T12:01:07.281Z,6.32
2022-07-29T12:04:09.323Z,6.93
2022-07-29T12:07:15.575Z,6.03
2022-07-29T12:10:29.577Z,6.28
2022-07-29T12:13:39.970Z,6.80
2022-07-29T12:16:41.593Z,6.07
2022-07-29T12:19:44.292Z,6.65
2022-07-29T12:22:49.281Z,7.00
2022-07-29T12:25:51.027Z,6.75
2022-07-29T12:28:52.677Z,6.25
2022-07-29T12:31:58.017Z,6.43
2022-07-29T12:35:00.844Z,6.68
2022-07-29T12:38:03.363Z,5.68
2022-07-29T12:41:05.278Z,6.22
2022-07-29T12:44:06.982Z,6.30
2022-07-29T12:47:08.566Z,6.63
2022-07-29T12:50:20.277Z,6.70
2022-07-29T12:53:25.838Z,6.15
2022-07-29T12:56:42.138Z,6.30
2022-07-29T12:59:44.250Z,6.30
2022-07-29T13:02:56.590Z,6.28
2022-07-29T13:05:58.235Z,5.70
2022-07-29T13:09:05.309Z,6.45
2022-07-29T13:12:09.179Z,6.03
2022-07-29T13:15:17.498Z,6.00
2022-07-29T13:18:32.927Z,6.18
2022-07-29T13:21:34.841Z,6.53
2022-07-29T13:24:56.304Z,6.50
2022-07-29T13:27:58.550Z,6.25
2022-07-29T13:31:00.217Z,5.63
2022-07-29T13:34:01.848Z,5.78
2022-07-29T13:37:03.474Z,6.53
2022-07-29T13:40:06.875Z,6.78
2022-07-29T13:43:12.023Z,6.38
2022-07-29T13:46:13.723Z,6.03
2022-07-29T13:49:15.429Z,6.32
2022-07-29T13:52:17.870Z,6.45
2022-07-29T13:55:19.662Z,6.53
2022-07-29T13:58:21.329Z,6.95
2022-07-29T14:01:22.992Z,6.43
2022-07-29T14:04:24.747Z,6.57
2022-07-29T14:07:26.408Z,5.55
2022-07-29T14:10:28.054Z,6.28
2022-07-29T14:13:29.641Z,6.00
2022-07-29T14:16:31.518Z,6.20
2022-07-29T14:19:36.189Z,5.88
2022-07-29T14:22:42.307Z,6.20
2022-07-29T14:25:44.591Z,5.55
2022-07-29T14:28:46.788Z,6.40
2022-07-29T14:31:48.649Z,6.40
2022-07-29T14:34:50.400Z,5.70
2022-07-29T14:37:52.007Z,6.57
2022-07-29T14:40:53.598Z,6.40
2022-07-29T14:43:55.489Z,6.20
2022-07-29T14:46:57.713Z,6.30
2022-07-29T14:50:00.092Z,6.32
2022-07-29T14:53:01.920Z,6.30
2022-07-29T14:56:21.137Z,6.60
2022-07-29T14:59:26.287Z,5.93
2022-07-29T15:02:45.717Z,6.70
2022-07-29T15:05:47.640Z,5.95
2022-07-29T15:08:49.711Z,6.10
2022-07-29T15:11:51.349Z,6.20
2022-07-29T15:14:52.938Z,6.10
2022-07-29T15:17:54.559Z,6.03
2022-07-29T15:20:56.133Z,6.20
2022-07-29T15:23:57.770Z,5.93
2022-07-29T15:26:59.452Z,5.73
2022-07-29T15:30:01.188Z,6.27
2022-07-29T15:33:03.995Z,5.83
2022-07-29T15:36:05.811Z,5.87
2022-07-29T15:39:07.432Z,6.83
2022-07-29T15:42:09.144Z,6.17
2022-07-29T15:45:10.975Z,6.40
2022-07-29T15:48:14.877Z,5.60
2022-07-29T15:51:16.576Z,6.40
2022-07-29T15:54:18.140Z,6.00
2022-07-29T15:57:19.742Z,5.83
2022-07-29T16:00:22.405Z,5.60
2022-07-29T16:03:24.901Z,5.87
2022-07-29T16:06:26.757Z,5.60
2022-07-29T16:09:28.886Z,6.20
2022-07-29T16:12:30.523Z,5.87
2022-07-29T16:15:32.302Z,5.60
2022-07-29T16:18:34.653Z,6.70
2022-07-29T16:21:37.715Z,6.23
2022-07-29T16:24:39.612Z,5.93
2022-07-29T16:27:41.229Z,5.73
2022-07-29T16:30:42.805Z,5.70
2022-07-29T16:33:55.506Z,5.93
2022-07-29T16:36:57.515Z,6.03
2022-07-29T16:39:59.329Z,6.43
2022-07-29T16:43:01.075Z,5.90
2022-07-29T16:46:02.821Z,6.13
2022-07-29T16:49:04.756Z,6.63
2022-07-29T16:52:06.771Z,6.50
2022-07-29T16:55:08.693Z,6.90
2022-07-29T16:58:11.094Z,7.00
2022-07-29T17:01:12.871Z,7.47
2022-07-29T17:04:15.077Z,7.23
2022-07-29T17:07:17.246Z,6.47
2022-07-29T17:10:18.918Z,7.00
2022-07-29T17:13:20.602Z,6.73
2022-07-29T17:16:24.669Z,6.27
2022-07-29T17:19:26.952Z,6.70
2022-07-29T17:22:28.778Z,6.03
2022-07-29T17:25:30.398Z,6.20
2022-07-29T17:28:32.020Z,5.70
2022-07-29T17:31:33.661Z,6.10
2022-07-29T17:34:40.349Z,5.83
2022-07-29T17:37:41.968Z,5.70
2022-07-29T17:40:43.643Z,5.53
2022-07-29T17:43:45.345Z,5.80
2022-07-29T17:46:47.326Z,4.97
2022-07-29T17:49:48.961Z,5.00
2022-07-29T17:52:50.611Z,5.60
2022-07-29T17:55:52.183Z,5.40
2022-07-29T17:58:54.390Z,5.40
2022-07-29T18:01:56.084Z,5.23
2022-07-29T18:04:57.962Z,5.53
2022-07-29T18:07:59.648Z,5.40
2022-07-29T18:11:02.500Z,5.20
2022-07-29T18:14:04.182Z,5.00
2022-07-29T18:17:05.892Z,6.13
2022-07-29T18:20:08.047Z,5.60
2022-07-29T18:23:10.341Z,5.67
2022-07-29T18:26:11.954Z,5.83
2022-07-29T18:29:13.622Z,5.40
2022-07-29T18:32:15.225Z,5.50
2022-07-29T18:35:17.580Z,5.00
2022-07-29T18:38:19.616Z,5.40
2022-07-29T18:41:21.186Z,5.37
2022-07-29T18:44:25.304Z,5.10
2022-07-29T18:47:32.240Z,5.67
2022-07-29T18:50:34.426Z,5.23
2022-07-29T18:53:37.045Z,5.27
2022-07-29T18:56:38.858Z,5.60
2022-07-29T18:59:40.476Z,5.20
2022-07-29T19:02:42.267Z,5.47
2022-07-29T19:05:44.188Z,5.70
2022-07-29T19:08:45.800Z,5.53
2022-07-29T19:11:47.468Z,5.90
2022-07-29T19:14:49.031Z,6.20
2022-07-29T19:17:50.743Z,6.23
2022-07-29T19:20:52.470Z,6.00
2022-07-29T19:24:05.220Z,5.80
2022-07-29T19:27:10.054Z,6.10
2022-07-29T19:30:12.001Z,6.03
2022-07-29T19:33:17.255Z,5.73
2022-07-29T19:36:18.843Z,5.83
2022-07-29T19:39:31.985Z,5.90
2022-07-29T19:42:37.106Z,6.03
2022-07-29T19:45:39.020Z,6.20
2022-07-29T19:48:40.709Z,6.30
2022-07-29T19:51:42.380Z,6.57
2022-07-29T19:54:44.071Z,5.83
2022-07-29T19:57:46.491Z,6.73
2022-07-29T20:00:48.179Z,6.80
2022-07-29T20:03:50.652Z,6.27
2022-07-29T20:06:55.876Z,5.90
2022-07-29T20:09:57.782Z,6.10
2022-07-29T20:12:59.447Z,6.60
2022-07-29T20:16:02.606Z,5.90
2022-07-29T20:19:04.237Z,7.10
2022-07-29T20:22:05.893Z,7.53
2022-07-29T20:25:09.815Z,7.03
2022-07-29T20:28:11.433Z,7.70
2022-07-29T20:31:15.402Z,8.27
2022-07-29T20:34:17.101Z,7.47
2022-07-29T20:37:20.490Z,7.83
2022-07-29T20:40:22.259Z,7.33
2022-07-29T20:43:24.233Z,7.70
2022-07-29T20:46:25.903Z,7.30
2022-07-29T20:49:27.563Z,6.60
2022-07-29T20:52:30.078Z,6.87
2022-07-29T20:55:32.191Z,7.10
2022-07-29T20:58:34.503Z,6.13
2022-07-29T21:01:36.229Z,7.20
2022-07-29T21:04:37.950Z,6.93
2022-07-29T21:07:39.578Z,6.90
2022-07-29T21:10:41.212Z,5.97
2022-07-29T21:13:45.206Z,6.00
2022-07-29T21:16:46.819Z,6.00
2022-07-29T21:19:50.505Z,6.60
2022-07-29T21:22:55.387Z,7.40
2022-07-29T21:25:57.247Z,6.47
2022-07-29T21:28:59.270Z,7.10
2022-07-29T21:32:00.892Z,7.83
2022-07-29T21:35:03.065Z,6.47
2022-07-29T21:38:18.190Z,6.03
2022-07-29T21:41:21.744Z,6.10
2022-07-29T21:44:23.382Z,6.47
2022-07-29T21:47:25.161Z,8.50
2022-07-29T21:50:26.737Z,6.30
2022-07-29T21:53:28.466Z,5.90
2022-07-29T21:56:30.547Z,6.23
2022-07-29T21:59:33.182Z,7.30
2022-07-29T22:02:34.791Z,6.43
2022-07-29T22:05:36.447Z,7.30
2022-07-29T22:08:40.088Z,6.43
2022-07-29T22:11:41.952Z,6.67
2022-07-29T22:14:43.529Z,6.33
2022-07-29T22:17:45.543Z,6.80
2022-07-29T22:20:47.148Z,6.20
2022-07-29T22:23:48.730Z,6.60
2022-07-29T22:26:50.413Z,6.30
2022-07-29T22:29:52.002Z,6.43
2022-07-29T22:32:53.600Z,6.00
2022-07-29T22:35:55.195Z,6.63
2022-07-29T22:38:56.807Z,6.20
2022-07-29T22:41:58.382Z,6.73
2022-07-29T22:45:00.400Z,6.03
2022-07-29T22:48:02.022Z,6.27
2022-07-29T22:51:05.020Z,6.57
2022-07-29T22:54:06.615Z,8.23
2022-07-29T22:57:08.230Z,7.50
2022-07-29T23:00:10.643Z,7.70
2022-07-29T23:03:12.235Z,7.00
2022-07-29T23:06:14.269Z,7.50
2022-07-29T23:09:15.855Z,8.23
2022-07-29T23:12:17.558Z,6.83
2022-07-29T23:15:19.567Z,7.40
2022-07-29T23:18:21.234Z,7.23
2022-07-29T23:21:23.091Z,7.50
2022-07-29T23:24:24.695Z,8.17
2022-07-29T23:27:26.269Z,7.60
2022-07-29T23:30:28.309Z,8.10
2022-07-29T23:33:29.913Z,8.37
2022-07-29T23:36:31.567Z,7.70
2022-07-29T23:39:33.219Z,7.23
2022-07-29T23:42:34.941Z,7.80
2022-07-29T23:45:44.732Z,7.80
2022-07-29T23:48:46.966Z,7.13
2022-07-29T23:51:48.625Z,7.90
2022-07-29T23:54:50.287Z,6.73
2022-07-29T23:57:51.987Z,8.50
